Time,TemperatureC,DewpointC,PressurehPa,WindDirection,WindDirectionDegrees,WindSpeedKMH,WindSpeedGustKMH,Humidity,HourlyPrecipMM,Conditions,Clouds,dailyrainMM,SolarRadiationWatts/m^2,UVIndex,SoftwareType,DateUTC
2024-04-21 00:07:00,-11.2,-15.9,1028.6,NE,51,12.9,19.3,68,0.0,,,0.0,,,n/a,2024-04-20T22:07:00Z
2024-04-21 00:22:00,-11.3,-15.8,1028.8,NE,43,9.7,16.1,69,0.0,,,0.0,,,n/a,2024-04-20T22:22:00Z
2024-04-21 00:37:00,-11.4,-16,1029.1,NE,48,12.9,16.1,69,0.0,,,0.0,,,n/a,2024-04-20T22:37:00Z
2024-04-21 00:52:00,-11.6,-16.3,1029.4,ENE,57,8,16.1,68,0.0,,,0.0,,,n/a,2024-04-20T22:52:00Z
2024-04-21 01:07:00,-12.2,-16.2,1029.5,ENE,63,8,14.5,72,0.0,,,0.0,,,n/a,2024-04-20T23:07:00Z
2024-04-21 01:22:00,-13.4,-17.1,1029.7,ENE,72,12.9,19.3,74,0.0,,,0.0,,,n/a,2024-04-20T23:22:00Z
2024-04-21 01:37:00,-13.2,-17.1,1030.0,ENE,68,9.7,16.1,73,0.0,,,0.0,,,n/a,2024-04-20T23:37:00Z
2024-04-21 01:52:00,-13.4,-17.2,1030.2,ENE,63,9.7,14.5,73,0.0,,,0.0,,,n/a,2024-04-20T23:52:00Z
2024-04-21 02:07:00,-12.7,-16.4,1030.5,ENE,60,9.7,14.5,74,0.0,,,0.0,,,n/a,2024-04-21T00:07:00Z
2024-04-21 02:22:00,-13.7,-17.3,1030.7,ENE,71,9.7,16.1,74,0.0,,,0.0,,,n/a,2024-04-21T00:22:00Z
2024-04-21 02:37:00,-13.8,-17.5,1031.0,ENE,66,8,12.9,74,0.0,,,0.0,,,n/a,2024-04-21T00:37:00Z
2024-04-21 02:52:00,-13.1,-16.3,1031.2,ENE,61,9.7,12.9,77,0.0,,,0.0,,,n/a,2024-04-21T00:52:00Z
2024-04-21 03:07:00,-13.1,-16.7,1031.3,ENE,57,9.7,19.3,74,0.0,,,0.0,,,n/a,2024-04-21T01:07:00Z
2024-04-21 03:22:00,-12.1,-15.3,1031.5,NE,44,11.3,16.1,77,0.0,,,0.0,,,n/a,2024-04-21T01:22:00Z
2024-04-21 03:37:00,-12.1,-15.4,1031.7,NE,50,8,19.3,76,0.0,,,0.0,,,n/a,2024-04-21T01:37:00Z
2024-04-21 03:52:00,-13.3,-16.8,1031.9,ENE,70,9.7,16.1,75,0.0,,,0.0,,,n/a,2024-04-21T01:52:00Z
2024-04-21 04:07:00,-13.8,-16.8,1032.2,ENE,71,9.7,14.5,78,0.0,,,0.0,,,n/a,2024-04-21T02:07:00Z
2024-04-21 04:22:00,-13.7,-16.5,1032.1,ENE,67,8,12.9,79,0.0,,,0.0,,,n/a,2024-04-21T02:22:00Z
2024-04-21 04:37:00,-14.1,-17.1,1032.2,ENE,71,9.7,12.9,78,0.0,,,0.0,,,n/a,2024-04-21T02:37:00Z
2024-04-21 04:52:00,-14.1,-16.9,1032.5,ENE,67,9.7,14.5,79,0.0,,,0.0,,,n/a,2024-04-21T02:52:00Z
2024-04-21 05:07:00,-14.1,-17,1032.7,ENE,68,9.7,14.5,79,0.0,,,0.0,,,n/a,2024-04-21T03:07:00Z
2024-04-21 05:22:00,-14.3,-17,1032.9,ENE,78,8,14.5,80,0.0,,,0.0,,,n/a,2024-04-21T03:22:00Z
2024-04-21 05:37:00,-14.4,-17.1,1033.2,ENE,71,8,14.5,80,0.0,,,0.0,,,n/a,2024-04-21T03:37:00Z
2024-04-21 05:52:00,-14,-16.7,1033.3,ENE,72,8,14.5,80,0.0,,,0.0,,,n/a,2024-04-21T03:52:00Z
2024-04-21 06:07:00,-13.9,-16.7,1033.5,ENE,72,9.7,14.5,79,0.0,,,0.0,,,n/a,2024-04-21T04:07:00Z
2024-04-21 06:22:00,-13.9,-16.8,1033.8,ENE,74,9.7,14.5,79,0.0,,,0.0,,,n/a,2024-04-21T04:22:00Z
2024-04-21 06:37:00,-13.6,-16.6,1033.9,ENE,65,11.3,16.1,78,0.0,,,0.0,,,n/a,2024-04-21T04:37:00Z
2024-04-21 06:52:00,-13.4,-16.4,1034.0,ENE,70,11.3,14.5,78,0.0,,,0.0,,,n/a,2024-04-21T04:52:00Z
2024-04-21 07:07:00,-12.4,-15.3,1034.2,ENE,57,9.7,16.1,79,0.0,,,0.0,,,n/a,2024-04-21T05:07:00Z
2024-04-21 07:22:00,-13.3,-16.1,1034.3,ENE,71,9.7,14.5,79,0.0,,,0.0,,,n/a,2024-04-21T05:22:00Z
2024-04-21 07:37:00,-12.7,-15.6,1034.6,East,79,9.7,14.5,79,0.0,,,0.0,,,n/a,2024-04-21T05:37:00Z
2024-04-21 07:52:00,-11.4,-14.3,1034.7,NE,55,14.5,19.3,79,0.0,,,0.0,,,n/a,2024-04-21T05:52:00Z
2024-04-21 08:07:00,-11.1,-14,1034.9,NE,50,14.5,19.3,79,0.0,,,0.0,,,n/a,2024-04-21T06:07:00Z
2024-04-21 08:22:00,-10.7,-13.8,1035.0,NE,51,12.9,20.9,78,0.0,,,0.0,,,n/a,2024-04-21T06:22:00Z
2024-04-21 08:37:00,-10.6,-13.7,1035.1,NE,43,16.1,20.9,78,0.0,,,0.0,,,n/a,2024-04-21T06:37:00Z
2024-04-21 08:52:00,-10.5,-13.4,1035.1,NE,39,16.1,22.5,79,0.0,,,0.0,,,n/a,2024-04-21T06:52:00Z
2024-04-21 09:07:00,-10.4,-13.4,1035.2,NE,34,19.3,25.7,79,0.0,,,0.0,,,n/a,2024-04-21T07:07:00Z
2024-04-21 09:22:00,-10.4,-13.4,1035.5,NE,38,16.1,24.1,79,0.0,,,0.0,,,n/a,2024-04-21T07:22:00Z
2024-04-21 09:37:00,-9.9,-13,1035.6,NE,34,16.1,27.4,78,0.0,,,0.0,,,n/a,2024-04-21T07:37:00Z
2024-04-21 09:52:00,-9.6,-12.7,1035.9,NE,34,16.1,25.7,78,0.0,,,0.0,,,n/a,2024-04-21T07:52:00Z
2024-04-21 10:07:00,-9.2,-12.3,1036.1,NNE,33,19.3,24.1,78,0.0,,,0.0,,,n/a,2024-04-21T08:07:00Z
2024-04-21 10:22:00,-8.7,-11.9,1036.2,ENE,62,12.9,22.5,77,0.0,,,0.0,,,n/a,2024-04-21T08:22:00Z
2024-04-21 10:37:00,-8.6,-11.9,1036.3,NE,56,19.3,24.1,77,0.0,,,0.0,,,n/a,2024-04-21T08:37:00Z
2024-04-21 10:52:00,-8.3,-11.8,1036.4,NE,55,19.3,25.7,76,0.0,,,0.0,,,n/a,2024-04-21T08:52:00Z
2024-04-21 11:07:00,-8.1,-11.8,1036.5,NE,54,12.9,25.7,75,0.0,,,0.0,,,n/a,2024-04-21T09:07:00Z
2024-04-21 11:22:00,-7.9,-11.6,1036.6,ENE,59,19.3,24.1,75,0.0,,,0.0,,,n/a,2024-04-21T09:22:00Z
2024-04-21 11:37:00,-7.6,-11.2,1036.6,ENE,63,16.1,24.1,75,0.0,,,0.0,,,n/a,2024-04-21T09:37:00Z
2024-04-21 11:52:00,-7.6,-11.2,1036.7,ENE,58,14.5,29,75,0.0,,,0.0,,,n/a,2024-04-21T09:52:00Z
2024-04-21 12:07:00,-7.3,-11,1036.6,NE,48,14.5,24.1,75,0.0,,,0.0,,,n/a,2024-04-21T10:07:00Z
2024-04-21 12:22:00,-7.2,-11,1036.6,NE,50,14.5,25.7,74,0.0,,,0.0,,,n/a,2024-04-21T10:22:00Z
2024-04-21 12:37:00,-6.9,-10.8,1036.5,ENE,58,20.9,27.4,74,0.0,,,0.0,,,n/a,2024-04-21T10:37:00Z
2024-04-21 12:52:00,-6.8,-10.8,1036.7,ENE,63,16.1,27.4,73,0.0,,,0.0,,,n/a,2024-04-21T10:52:00Z